sensor_id;sensor_type;location;lat;lon;timestamp;temperature;humidity
38183;DHT22;23991;52.430;10.586;2022-09-12T00:00:30;15.60;73.90
38183;DHT22;23991;52.430;10.586;2022-09-12T00:02:57;15.50;73.90
38183;DHT22;23991;52.430;10.586;2022-09-12T00:05:23;15.50;73.70
38183;DHT22;23991;52.430;10.586;2022-09-12T00:07:49;15.50;73.50
38183;DHT22;23991;52.430;10.586;2022-09-12T00:10:15;15.40;73.20
38183;DHT22;23991;52.430;10.586;2022-09-12T00:12:41;15.40;73.80
38183;DHT22;23991;52.430;10.586;2022-09-12T00:15:07;15.30;73.90
38183;DHT22;23991;52.430;10.586;2022-09-12T00:17:37;15.30;73.90
38183;DHT22;23991;52.430;10.586;2022-09-12T00:20:07;15.30;73.70
38183;DHT22;23991;52.430;10.586;2022-09-12T00:22:34;15.30;73.80
38183;DHT22;23991;52.430;10.586;2022-09-12T00:24:59;15.30;73.80
38183;DHT22;23991;52.430;10.586;2022-09-12T00:27:25;15.30;73.80
38183;DHT22;23991;52.430;10.586;2022-09-12T00:29:51;15.20;74.00
38183;DHT22;23991;52.430;10.586;2022-09-12T00:32:17;15.20;73.80
38183;DHT22;23991;52.430;10.586;2022-09-12T00:34:42;15.20;73.80
38183;DHT22;23991;52.430;10.586;2022-09-12T00:37:08;15.20;73.90
38183;DHT22;23991;52.430;10.586;2022-09-12T00:39:33;15.10;74.10
38183;DHT22;23991;52.430;10.586;2022-09-12T00:41:59;15.10;74.30
38183;DHT22;23991;52.430;10.586;2022-09-12T00:47:00;15.10;73.70
38183;DHT22;23991;52.430;10.586;2022-09-12T00:49:38;15.10;73.60
38183;DHT22;23991;52.430;10.586;2022-09-12T00:52:19;15.00;73.50
38183;DHT22;23991;52.430;10.586;2022-09-12T00:54:50;14.90;73.60
38183;DHT22;23991;52.430;10.586;2022-09-12T00:57:20;14.90;73.90
38183;DHT22;23991;52.430;10.586;2022-09-12T00:59:50;14.90;73.70
38183;DHT22;23991;52.430;10.586;2022-09-12T01:02:17;14.80;73.80
38183;DHT22;23991;52.430;10.586;2022-09-12T01:04:43;14.90;73.90
38183;DHT22;23991;52.430;10.586;2022-09-12T01:07:09;14.90;74.20
38183;DHT22;23991;52.430;10.586;2022-09-12T01:09:35;14.80;74.00
38183;DHT22;23991;52.430;10.586;2022-09-12T01:12:02;14.80;73.70
38183;DHT22;23991;52.430;10.586;2022-09-12T01:14:29;14.80;73.80
38183;DHT22;23991;52.430;10.586;2022-09-12T01:16:55;14.70;74.00
38183;DHT22;23991;52.430;10.586;2022-09-12T01:27:43;14.60;73.60
38183;DHT22;23991;52.430;10.586;2022-09-12T01:30:39;14.60;73.80
38183;DHT22;23991;52.430;10.586;2022-09-12T01:36:04;14.50;73.90
38183;DHT22;23991;52.430;10.586;2022-09-12T01:46:18;14.40;74.40
38183;DHT22;23991;52.430;10.586;2022-09-12T01:49:09;14.40;74.40
38183;DHT22;23991;52.430;10.586;2022-09-12T01:51:46;14.40;74.40
38183;DHT22;23991;52.430;10.586;2022-09-12T01:54:24;14.30;74.60
38183;DHT22;23991;52.430;10.586;2022-09-12T01:56:54;14.30;74.60
38183;DHT22;23991;52.430;10.586;2022-09-12T01:59:38;14.30;74.50
38183;DHT22;23991;52.430;10.586;2022-09-12T02:02:10;14.30;74.70
38183;DHT22;23991;52.430;10.586;2022-09-12T02:04:50;14.30;74.60
38183;DHT22;23991;52.430;10.586;2022-09-12T02:07:26;14.20;74.40
38183;DHT22;23991;52.430;10.586;2022-09-12T02:10:01;14.20;74.60
38183;DHT22;23991;52.430;10.586;2022-09-12T02:12:37;14.10;74.80
38183;DHT22;23991;52.430;10.586;2022-09-12T02:15:07;14.20;74.90
38183;DHT22;23991;52.430;10.586;2022-09-12T02:17:38;14.10;74.90
38183;DHT22;23991;52.430;10.586;2022-09-12T02:20:16;14.10;74.70
38183;DHT22;23991;52.430;10.586;2022-09-12T02:22:44;14.10;74.60
38183;DHT22;23991;52.430;10.586;2022-09-12T02:25:13;14.00;74.40
38183;DHT22;23991;52.430;10.586;2022-09-12T02:27:49;14.10;74.40
38183;DHT22;23991;52.430;10.586;2022-09-12T02:30:16;14.00;74.20
38183;DHT22;23991;52.430;10.586;2022-09-12T02:32:56;14.00;74.20
38183;DHT22;23991;52.430;10.586;2022-09-12T02:35:45;13.90;74.40
38183;DHT22;23991;52.430;10.586;2022-09-12T02:38:26;13.90;74.40
38183;DHT22;23991;52.430;10.586;2022-09-12T02:40:53;13.90;74.50
38183;DHT22;23991;52.430;10.586;2022-09-12T02:43:18;13.90;74.70
38183;DHT22;23991;52.430;10.586;2022-09-12T02:45:44;13.90;74.80
38183;DHT22;23991;52.430;10.586;2022-09-12T02:48:29;13.90;74.90
38183;DHT22;23991;52.430;10.586;2022-09-12T02:50:56;13.90;74.90
38183;DHT22;23991;52.430;10.586;2022-09-12T02:53:22;13.80;74.80
38183;DHT22;23991;52.430;10.586;2022-09-12T02:55:47;13.80;74.80
38183;DHT22;23991;52.430;10.586;2022-09-12T02:58:17;13.80;74.90
38183;DHT22;23991;52.430;10.586;2022-09-12T03:00:56;13.80;75.20
38183;DHT22;23991;52.430;10.586;2022-09-12T03:03:48;13.80;75.20
38183;DHT22;23991;52.430;10.586;2022-09-12T03:06:28;13.80;74.90
38183;DHT22;23991;52.430;10.586;2022-09-12T03:09:04;13.80;75.10
38183;DHT22;23991;52.430;10.586;2022-09-12T03:11:42;13.80;75.30
38183;DHT22;23991;52.430;10.586;2022-09-12T03:14:42;13.70;75.10
38183;DHT22;23991;52.430;10.586;2022-09-12T03:17:31;13.70;75.10
38183;DHT22;23991;52.430;10.586;2022-09-12T03:22:55;13.60;74.80
38183;DHT22;23991;52.430;10.586;2022-09-12T03:25:28;13.60;74.80
38183;DHT22;23991;52.430;10.586;2022-09-12T03:27:59;13.60;74.70
38183;DHT22;23991;52.430;10.586;2022-09-12T03:30:26;13.50;74.50
38183;DHT22;23991;52.430;10.586;2022-09-12T03:32:53;13.50;74.50
38183;DHT22;23991;52.430;10.586;2022-09-12T03:35:21;13.60;74.80
38183;DHT22;23991;52.430;10.586;2022-09-12T03:37:47;13.50;74.30
38183;DHT22;23991;52.430;10.586;2022-09-12T03:40:13;13.50;74.40
38183;DHT22;23991;52.430;10.586;2022-09-12T03:42:40;13.50;74.50
38183;DHT22;23991;52.430;10.586;2022-09-12T03:45:06;13.40;74.80
38183;DHT22;23991;52.430;10.586;2022-09-12T03:47:32;13.40;75.00
38183;DHT22;23991;52.430;10.586;2022-09-12T03:49:58;13.40;75.30
38183;DHT22;23991;52.430;10.586;2022-09-12T03:52:23;13.40;75.60
38183;DHT22;23991;52.430;10.586;2022-09-12T03:54:49;13.40;75.60
38183;DHT22;23991;52.430;10.586;2022-09-12T03:57:15;13.40;75.60
38183;DHT22;23991;52.430;10.586;2022-09-12T03:59:40;13.40;75.70
38183;DHT22;23991;52.430;10.586;2022-09-12T04:02:06;13.40;75.90
38183;DHT22;23991;52.430;10.586;2022-09-12T04:04:32;13.30;75.70
38183;DHT22;23991;52.430;10.586;2022-09-12T04:06:57;13.30;75.70
38183;DHT22;23991;52.430;10.586;2022-09-12T04:09:23;13.40;76.10
38183;DHT22;23991;52.430;10.586;2022-09-12T04:11:49;13.30;76.20
38183;DHT22;23991;52.430;10.586;2022-09-12T04:14:14;13.30;75.70
38183;DHT22;23991;52.430;10.586;2022-09-12T04:16:40;13.30;75.90
38183;DHT22;23991;52.430;10.586;2022-09-12T04:19:05;13.30;76.00
38183;DHT22;23991;52.430;10.586;2022-09-12T04:21:30;13.30;76.20
38183;DHT22;23991;52.430;10.586;2022-09-12T04:23:56;13.30;76.20
38183;DHT22;23991;52.430;10.586;2022-09-12T04:26:22;13.30;76.20
38183;DHT22;23991;52.430;10.586;2022-09-12T04:28:51;13.30;76.30
38183;DHT22;23991;52.430;10.586;2022-09-12T04:31:18;13.30;76.70
38183;DHT22;23991;52.430;10.586;2022-09-12T04:33:47;13.30;76.60
38183;DHT22;23991;52.430;10.586;2022-09-12T04:36:17;13.30;76.60
38183;DHT22;23991;52.430;10.586;2022-09-12T04:38:44;13.30;76.40
38183;DHT22;23991;52.430;10.586;2022-09-12T04:41:21;13.30;76.50
38183;DHT22;23991;52.430;10.586;2022-09-12T04:43:52;13.30;76.50
38183;DHT22;23991;52.430;10.586;2022-09-12T04:46:18;13.30;76.80
38183;DHT22;23991;52.430;10.586;2022-09-12T04:48:45;13.20;76.80
38183;DHT22;23991;52.430;10.586;2022-09-12T04:51:19;13.20;76.80
38183;DHT22;23991;52.430;10.586;2022-09-12T04:53:50;13.20;77.00
38183;DHT22;23991;52.430;10.586;2022-09-12T04:56:17;13.20;76.90
38183;DHT22;23991;52.430;10.586;2022-09-12T04:58:43;13.20;77.00
38183;DHT22;23991;52.430;10.586;2022-09-12T05:01:14;13.20;77.20
38183;DHT22;23991;52.430;10.586;2022-09-12T05:03:41;13.20;77.20
38183;DHT22;23991;52.430;10.586;2022-09-12T05:06:18;13.30;77.00
38183;DHT22;23991;52.430;10.586;2022-09-12T05:08:45;13.30;76.80
38183;DHT22;23991;52.430;10.586;2022-09-12T05:11:13;13.40;76.50
38183;DHT22;23991;52.430;10.586;2022-09-12T05:13:39;13.40;76.00
38183;DHT22;23991;52.430;10.586;2022-09-12T05:16:06;13.50;75.80
38183;DHT22;23991;52.430;10.586;2022-09-12T05:18:34;13.50;75.60
38183;DHT22;23991;52.430;10.586;2022-09-12T05:21:02;13.60;75.60
38183;DHT22;23991;52.430;10.586;2022-09-12T05:23:29;13.70;75.60
38183;DHT22;23991;52.430;10.586;2022-09-12T05:25:56;13.80;75.20
38183;DHT22;23991;52.430;10.586;2022-09-12T05:28:23;13.80;75.10
38183;DHT22;23991;52.430;10.586;2022-09-12T05:31:00;13.90;75.00
38183;DHT22;23991;52.430;10.586;2022-09-12T05:33:26;13.90;74.50
38183;DHT22;23991;52.430;10.586;2022-09-12T05:35:52;14.00;74.20
38183;DHT22;23991;52.430;10.586;2022-09-12T05:38:17;14.10;74.30
38183;DHT22;23991;52.430;10.586;2022-09-12T05:40:43;14.20;73.90
38183;DHT22;23991;52.430;10.586;2022-09-12T05:43:09;14.20;73.70
38183;DHT22;23991;52.430;10.586;2022-09-12T05:45:37;14.30;73.90
38183;DHT22;23991;52.430;10.586;2022-09-12T05:48:02;14.40;73.70
38183;DHT22;23991;52.430;10.586;2022-09-12T05:50:28;14.50;73.10
38183;DHT22;23991;52.430;10.586;2022-09-12T05:52:53;14.60;73.40
38183;DHT22;23991;52.430;10.586;2022-09-12T05:55:19;14.60;73.60
38183;DHT22;23991;52.430;10.586;2022-09-12T05:57:45;14.80;73.40
38183;DHT22;23991;52.430;10.586;2022-09-12T06:00:12;14.90;73.10
38183;DHT22;23991;52.430;10.586;2022-09-12T06:02:39;15.00;72.80
38183;DHT22;23991;52.430;10.586;2022-09-12T06:05:04;15.10;72.60
38183;DHT22;23991;52.430;10.586;2022-09-12T06:07:30;15.20;73.20
38183;DHT22;23991;52.430;10.586;2022-09-12T06:09:57;15.30;72.80
38183;DHT22;23991;52.430;10.586;2022-09-12T06:12:24;15.40;72.10
38183;DHT22;23991;52.430;10.586;2022-09-12T06:14:51;15.60;72.30
38183;DHT22;23991;52.430;10.586;2022-09-12T06:17:17;15.80;72.40
38183;DHT22;23991;52.430;10.586;2022-09-12T06:19:43;16.00;71.80
38183;DHT22;23991;52.430;10.586;2022-09-12T06:22:09;16.10;71.90
38183;DHT22;23991;52.430;10.586;2022-09-12T06:24:35;16.30;71.50
38183;DHT22;23991;52.430;10.586;2022-09-12T06:27:01;16.60;71.50
38183;DHT22;23991;52.430;10.586;2022-09-12T06:29:27;16.80;71.20
38183;DHT22;23991;52.430;10.586;2022-09-12T06:31:52;17.00;71.00
38183;DHT22;23991;52.430;10.586;2022-09-12T06:34:18;17.10;70.20
38183;DHT22;23991;52.430;10.586;2022-09-12T06:36:46;17.40;69.20
38183;DHT22;23991;52.430;10.586;2022-09-12T06:39:18;17.70;69.60
38183;DHT22;23991;52.430;10.586;2022-09-12T06:41:44;17.90;69.60
38183;DHT22;23991;52.430;10.586;2022-09-12T06:44:15;18.20;68.80
38183;DHT22;23991;52.430;10.586;2022-09-12T06:46:41;18.40;68.60
38183;DHT22;23991;52.430;10.586;2022-09-12T06:49:07;18.60;68.50
38183;DHT22;23991;52.430;10.586;2022-09-12T06:51:33;18.70;67.50
38183;DHT22;23991;52.430;10.586;2022-09-12T06:54:00;18.90;67.40
38183;DHT22;23991;52.430;10.586;2022-09-12T06:56:26;19.20;65.80
38183;DHT22;23991;52.430;10.586;2022-09-12T06:58:55;19.30;66.80
38183;DHT22;23991;52.430;10.586;2022-09-12T07:01:29;19.40;66.50
38183;DHT22;23991;52.430;10.586;2022-09-12T07:03:59;19.60;65.50
38183;DHT22;23991;52.430;10.586;2022-09-12T07:06:27;19.90;63.90
38183;DHT22;23991;52.430;10.586;2022-09-12T07:08:57;19.90;63.80
38183;DHT22;23991;52.430;10.586;2022-09-12T07:11:25;20.20;64.20
38183;DHT22;23991;52.430;10.586;2022-09-12T07:13:53;20.50;63.50
38183;DHT22;23991;52.430;10.586;2022-09-12T07:16:19;20.80;62.30
38183;DHT22;23991;52.430;10.586;2022-09-12T07:18:52;21.10;61.80
38183;DHT22;23991;52.430;10.586;2022-09-12T07:21:18;21.40;61.30
38183;DHT22;23991;52.430;10.586;2022-09-12T07:23:44;21.50;59.80
38183;DHT22;23991;52.430;10.586;2022-09-12T07:26:11;21.70;58.90
38183;DHT22;23991;52.430;10.586;2022-09-12T07:28:37;22.00;58.40
38183;DHT22;23991;52.430;10.586;2022-09-12T07:33:33;22.30;58.20
38183;DHT22;23991;52.430;10.586;2022-09-12T07:36:03;22.30;57.50
38183;DHT22;23991;52.430;10.586;2022-09-12T07:38:29;22.80;57.70
38183;DHT22;23991;52.430;10.586;2022-09-12T07:40:55;22.80;56.30
38183;DHT22;23991;52.430;10.586;2022-09-12T07:43:21;23.00;55.40
38183;DHT22;23991;52.430;10.586;2022-09-12T07:45:47;23.10;56.60
38183;DHT22;23991;52.430;10.586;2022-09-12T07:48:12;23.60;56.10
38183;DHT22;23991;52.430;10.586;2022-09-12T07:50:38;24.10;54.90
38183;DHT22;23991;52.430;10.586;2022-09-12T07:53:04;24.20;54.50
38183;DHT22;23991;52.430;10.586;2022-09-12T07:55:30;24.50;53.00
38183;DHT22;23991;52.430;10.586;2022-09-12T07:57:55;24.90;52.50
38183;DHT22;23991;52.430;10.586;2022-09-12T08:00:21;24.80;52.20
38183;DHT22;23991;52.430;10.586;2022-09-12T08:02:51;25.10;51.80
38183;DHT22;23991;52.430;10.586;2022-09-12T08:05:17;25.00;51.00
38183;DHT22;23991;52.430;10.586;2022-09-12T08:07:43;25.40;51.40
38183;DHT22;23991;52.430;10.586;2022-09-12T08:10:08;25.70;49.20
38183;DHT22;23991;52.430;10.586;2022-09-12T08:12:34;26.10;49.30
38183;DHT22;23991;52.430;10.586;2022-09-12T08:15:01;25.90;48.60
38183;DHT22;23991;52.430;10.586;2022-09-12T08:17:26;26.30;48.60
38183;DHT22;23991;52.430;10.586;2022-09-12T08:19:53;26.50;47.00
38183;DHT22;23991;52.430;10.586;2022-09-12T08:22:18;26.20;48.60
38183;DHT22;23991;52.430;10.586;2022-09-12T08:24:46;26.80;46.90
38183;DHT22;23991;52.430;10.586;2022-09-12T08:27:12;27.10;46.20
38183;DHT22;23991;52.430;10.586;2022-09-12T08:29:37;27.20;45.70
38183;DHT22;23991;52.430;10.586;2022-09-12T08:32:03;27.50;45.40
38183;DHT22;23991;52.430;10.586;2022-09-12T08:34:28;27.70;45.40
38183;DHT22;23991;52.430;10.586;2022-09-12T08:36:54;28.00;44.20
38183;DHT22;23991;52.430;10.586;2022-09-12T08:39:20;28.00;44.00
38183;DHT22;23991;52.430;10.586;2022-09-12T08:41:48;27.80;43.80
38183;DHT22;23991;52.430;10.586;2022-09-12T08:49:54;28.70;42.00
38183;DHT22;23991;52.430;10.586;2022-09-12T08:55:37;28.70;42.30
38183;DHT22;23991;52.430;10.586;2022-09-12T08:58:17;29.30;40.50
38183;DHT22;23991;52.430;10.586;2022-09-12T09:03:28;30.00;40.40
38183;DHT22;23991;52.430;10.586;2022-09-12T09:06:14;30.20;39.90
38183;DHT22;23991;52.430;10.586;2022-09-12T09:09:05;30.70;38.70
38183;DHT22;23991;52.430;10.586;2022-09-12T09:16:59;30.70;37.60
38183;DHT22;23991;52.430;10.586;2022-09-12T09:19:30;31.20;36.90
38183;DHT22;23991;52.430;10.586;2022-09-12T09:24:35;31.50;36.50
38183;DHT22;23991;52.430;10.586;2022-09-12T09:27:36;31.90;35.80
38183;DHT22;23991;52.430;10.586;2022-09-12T09:30:07;31.80;35.50
38183;DHT22;23991;52.430;10.586;2022-09-12T09:32:39;31.80;35.60
38183;DHT22;23991;52.430;10.586;2022-09-12T09:38:14;31.90;35.40
38183;DHT22;23991;52.430;10.586;2022-09-12T09:40:48;32.80;34.30
38183;DHT22;23991;52.430;10.586;2022-09-12T09:43:22;33.00;33.60
38183;DHT22;23991;52.430;10.586;2022-09-12T09:45:49;32.80;33.40
38183;DHT22;23991;52.430;10.586;2022-09-12T09:48:22;32.70;33.40
38183;DHT22;23991;52.430;10.586;2022-09-12T09:50:49;33.20;32.70
38183;DHT22;23991;52.430;10.586;2022-09-12T09:53:43;33.40;32.00
38183;DHT22;23991;52.430;10.586;2022-09-12T09:56:37;33.60;32.30
38183;DHT22;23991;52.430;10.586;2022-09-12T09:59:24;33.80;32.20
38183;DHT22;23991;52.430;10.586;2022-09-12T10:01:52;33.80;31.40
38183;DHT22;23991;52.430;10.586;2022-09-12T10:04:30;33.60;31.20
38183;DHT22;23991;52.430;10.586;2022-09-12T10:06:59;33.40;31.40
38183;DHT22;23991;52.430;10.586;2022-09-12T10:09:30;33.20;32.00
38183;DHT22;23991;52.430;10.586;2022-09-12T10:12:01;33.20;32.20
38183;DHT22;23991;52.430;10.586;2022-09-12T10:14:59;33.30;32.10
38183;DHT22;23991;52.430;10.586;2022-09-12T10:17:40;34.00;30.90
38183;DHT22;23991;52.430;10.586;2022-09-12T10:20:30;34.30;29.70
38183;DHT22;23991;52.430;10.586;2022-09-12T10:22:58;34.30;29.40
38183;DHT22;23991;52.430;10.586;2022-09-12T10:25:25;34.70;29.60
38183;DHT22;23991;52.430;10.586;2022-09-12T10:27:53;35.00;29.50
38183;DHT22;23991;52.430;10.586;2022-09-12T10:30:20;35.10;28.30
38183;DHT22;23991;52.430;10.586;2022-09-12T10:32:49;35.20;28.50
38183;DHT22;23991;52.430;10.586;2022-09-12T10:35:24;35.20;28.20
38183;DHT22;23991;52.430;10.586;2022-09-12T10:38:00;35.40;28.00
38183;DHT22;23991;52.430;10.586;2022-09-12T10:40:29;35.00;28.60
38183;DHT22;23991;52.430;10.586;2022-09-12T10:42:58;35.20;28.50
38183;DHT22;23991;52.430;10.586;2022-09-12T10:45:28;35.40;28.20
38183;DHT22;23991;52.430;10.586;2022-09-12T10:47:56;35.60;27.70
38183;DHT22;23991;52.430;10.586;2022-09-12T10:50:39;35.30;28.70
38183;DHT22;23991;52.430;10.586;2022-09-12T10:53:22;35.10;29.00
38183;DHT22;23991;52.430;10.586;2022-09-12T10:56:02;34.70;29.50
38183;DHT22;23991;52.430;10.586;2022-09-12T11:04:27;34.20;30.20
38183;DHT22;23991;52.430;10.586;2022-09-12T11:15:09;34.90;28.40
38183;DHT22;23991;52.430;10.586;2022-09-12T11:17:48;34.70;28.30
38183;DHT22;23991;52.430;10.586;2022-09-12T11:23:27;34.70;28.30
38183;DHT22;23991;52.430;10.586;2022-09-12T11:26:01;35.40;27.70
38183;DHT22;23991;52.430;10.586;2022-09-12T11:33:50;35.20;27.30
38183;DHT22;23991;52.430;10.586;2022-09-12T11:36:32;35.60;27.30
38183;DHT22;23991;52.430;10.586;2022-09-12T11:39:11;35.20;27.60
38183;DHT22;23991;52.430;10.586;2022-09-12T11:41:41;34.90;27.80
38183;DHT22;23991;52.430;10.586;2022-09-12T11:44:10;35.50;26.90
38183;DHT22;23991;52.430;10.586;2022-09-12T11:46:46;35.60;27.20
38183;DHT22;23991;52.430;10.586;2022-09-12T11:49:40;36.00;27.10
38183;DHT22;23991;52.430;10.586;2022-09-12T11:52:24;36.10;26.50
38183;DHT22;23991;52.430;10.586;2022-09-12T11:55:16;36.00;26.60
38183;DHT22;23991;52.430;10.586;2022-09-12T11:57:43;36.00;25.90
38183;DHT22;23991;52.430;10.586;2022-09-12T12:00:43;36.40;25.50
38183;DHT22;23991;52.430;10.586;2022-09-12T12:03:25;36.60;25.60
38183;DHT22;23991;52.430;10.586;2022-09-12T12:05:56;36.50;24.90
38183;DHT22;23991;52.430;10.586;2022-09-12T12:08:25;36.20;25.20
38183;DHT22;23991;52.430;10.586;2022-09-12T12:10:57;37.00;24.40
38183;DHT22;23991;52.430;10.586;2022-09-12T12:13:49;36.80;25.50
38183;DHT22;23991;52.430;10.586;2022-09-12T12:16:23;36.80;25.50
38183;DHT22;23991;52.430;10.586;2022-09-12T12:21:41;36.70;25.90
38183;DHT22;23991;52.430;10.586;2022-09-12T12:26:39;36.60;25.70
38183;DHT22;23991;52.430;10.586;2022-09-12T12:29:42;36.70;25.10
38183;DHT22;23991;52.430;10.586;2022-09-12T12:34:44;36.30;24.90
38183;DHT22;23991;52.430;10.586;2022-09-12T12:45:03;35.60;25.90
38183;DHT22;23991;52.430;10.586;2022-09-12T12:47:48;35.50;26.30
38183;DHT22;23991;52.430;10.586;2022-09-12T12:52:47;35.60;26.10
38183;DHT22;23991;52.430;10.586;2022-09-12T12:55:20;35.30;26.10
38183;DHT22;23991;52.430;10.586;2022-09-12T12:57:49;34.70;27.50
38183;DHT22;23991;52.430;10.586;2022-09-12T13:00:28;34.40;27.70
38183;DHT22;23991;52.430;10.586;2022-09-12T13:05:45;34.40;27.70
38183;DHT22;23991;52.430;10.586;2022-09-12T13:11:13;34.20;27.70
38183;DHT22;23991;52.430;10.586;2022-09-12T13:14:03;33.70;28.50
38183;DHT22;23991;52.430;10.586;2022-09-12T13:16:36;33.50;28.50
38183;DHT22;23991;52.430;10.586;2022-09-12T13:19:14;33.50;28.40
38183;DHT22;23991;52.430;10.586;2022-09-12T13:21:56;33.30;28.80
38183;DHT22;23991;52.430;10.586;2022-09-12T13:24:23;33.20;29.00
38183;DHT22;23991;52.430;10.586;2022-09-12T13:26:50;33.00;29.90
38183;DHT22;23991;52.430;10.586;2022-09-12T13:29:16;32.90;30.50
38183;DHT22;23991;52.430;10.586;2022-09-12T13:31:44;33.30;29.80
38183;DHT22;23991;52.430;10.586;2022-09-12T13:34:33;33.70;28.50
38183;DHT22;23991;52.430;10.586;2022-09-12T13:37:21;33.70;28.90
38183;DHT22;23991;52.430;10.586;2022-09-12T13:40:11;33.80;28.30
38183;DHT22;23991;52.430;10.586;2022-09-12T13:42:47;34.00;28.30
38183;DHT22;23991;52.430;10.586;2022-09-12T13:45:25;34.20;27.70
38183;DHT22;23991;52.430;10.586;2022-09-12T13:48:17;33.80;28.20
38183;DHT22;23991;52.430;10.586;2022-09-12T13:50:55;34.10;28.00
38183;DHT22;23991;52.430;10.586;2022-09-12T13:53:25;34.20;28.00
38183;DHT22;23991;52.430;10.586;2022-09-12T13:55:57;34.30;27.20
38183;DHT22;23991;52.430;10.586;2022-09-12T13:58:27;34.30;27.40
38183;DHT22;23991;52.430;10.586;2022-09-12T14:01:12;34.30;27.70
38183;DHT22;23991;52.430;10.586;2022-09-12T14:03:41;34.30;27.40
38183;DHT22;23991;52.430;10.586;2022-09-12T14:09:01;34.20;27.50
38183;DHT22;23991;52.430;10.586;2022-09-12T14:11:37;34.20;27.80
38183;DHT22;23991;52.430;10.586;2022-09-12T14:14:05;33.90;28.00
38183;DHT22;23991;52.430;10.586;2022-09-12T14:16:37;34.00;27.90
38183;DHT22;23991;52.430;10.586;2022-09-12T14:19:04;34.10;27.40
38183;DHT22;23991;52.430;10.586;2022-09-12T14:21:34;33.90;26.90
38183;DHT22;23991;52.430;10.586;2022-09-12T14:24:02;33.10;28.70
38183;DHT22;23991;52.430;10.586;2022-09-12T14:26:29;33.00;28.80
38183;DHT22;23991;52.430;10.586;2022-09-12T14:28:58;33.30;28.40
38183;DHT22;23991;52.430;10.586;2022-09-12T14:31:30;33.90;28.00
38183;DHT22;23991;52.430;10.586;2022-09-12T14:34:14;34.30;27.50
38183;DHT22;23991;52.430;10.586;2022-09-12T14:36:46;34.70;27.10
38183;DHT22;23991;52.430;10.586;2022-09-12T14:39:20;34.60;27.40
38183;DHT22;23991;52.430;10.586;2022-09-12T14:41:48;34.70;26.80
38183;DHT22;23991;52.430;10.586;2022-09-12T14:44:26;34.40;27.40
38183;DHT22;23991;52.430;10.586;2022-09-12T14:46:52;34.20;27.50
38183;DHT22;23991;52.430;10.586;2022-09-12T14:49:25;33.90;27.70
38183;DHT22;23991;52.430;10.586;2022-09-12T14:51:56;33.40;28.80
38183;DHT22;23991;52.430;10.586;2022-09-12T14:56:57;32.70;29.80
38183;DHT22;23991;52.430;10.586;2022-09-12T14:59:36;32.70;30.60
38183;DHT22;23991;52.430;10.586;2022-09-12T15:04:45;33.40;29.30
38183;DHT22;23991;52.430;10.586;2022-09-12T15:07:35;33.50;29.70
38183;DHT22;23991;52.430;10.586;2022-09-12T15:10:03;33.60;28.90
38183;DHT22;23991;52.430;10.586;2022-09-12T15:12:29;33.70;28.60
38183;DHT22;23991;52.430;10.586;2022-09-12T15:15:03;33.90;27.80
38183;DHT22;23991;52.430;10.586;2022-09-12T15:17:31;33.40;28.80
38183;DHT22;23991;52.430;10.586;2022-09-12T15:19:56;33.20;29.20
38183;DHT22;23991;52.430;10.586;2022-09-12T15:22:23;32.80;29.80
38183;DHT22;23991;52.430;10.586;2022-09-12T15:24:50;32.90;29.90
38183;DHT22;23991;52.430;10.586;2022-09-12T15:27:16;32.70;29.80
38183;DHT22;23991;52.430;10.586;2022-09-12T15:29:42;32.70;29.90
38183;DHT22;23991;52.430;10.586;2022-09-12T15:32:12;32.50;30.40
38183;DHT22;23991;52.430;10.586;2022-09-12T15:34:46;32.40;30.00
38183;DHT22;23991;52.430;10.586;2022-09-12T15:37:12;32.30;30.20
38183;DHT22;23991;52.430;10.586;2022-09-12T15:39:38;32.20;30.10
38183;DHT22;23991;52.430;10.586;2022-09-12T15:42:04;31.90;30.50
38183;DHT22;23991;52.430;10.586;2022-09-12T15:44:30;31.70;30.80
38183;DHT22;23991;52.430;10.586;2022-09-12T15:46:56;31.50;31.10
38183;DHT22;23991;52.430;10.586;2022-09-12T15:49:21;31.60;30.90
38183;DHT22;23991;52.430;10.586;2022-09-12T15:51:47;31.20;31.60
38183;DHT22;23991;52.430;10.586;2022-09-12T15:54:13;31.20;31.60
38183;DHT22;23991;52.430;10.586;2022-09-12T15:56:39;31.20;31.80
38183;DHT22;23991;52.430;10.586;2022-09-12T15:59:04;30.90;32.20
38183;DHT22;23991;52.430;10.586;2022-09-12T16:01:30;30.90;31.90
38183;DHT22;23991;52.430;10.586;2022-09-12T16:03:56;30.70;32.40
38183;DHT22;23991;52.430;10.586;2022-09-12T16:06:22;30.70;32.50
38183;DHT22;23991;52.430;10.586;2022-09-12T16:08:48;30.90;32.40
38183;DHT22;23991;52.430;10.586;2022-09-12T16:11:24;31.00;32.20
38183;DHT22;23991;52.430;10.586;2022-09-12T16:13:54;30.90;31.80
38183;DHT22;23991;52.430;10.586;2022-09-12T16:16:21;30.90;32.00
38183;DHT22;23991;52.430;10.586;2022-09-12T16:18:46;30.50;33.10
38183;DHT22;23991;52.430;10.586;2022-09-12T16:21:12;30.30;32.90
38183;DHT22;23991;52.430;10.586;2022-09-12T16:23:37;30.20;32.50
38183;DHT22;23991;52.430;10.586;2022-09-12T16:26:05;30.20;33.10
38183;DHT22;23991;52.430;10.586;2022-09-12T16:28:31;30.10;33.30
38183;DHT22;23991;52.430;10.586;2022-09-12T16:30:59;30.10;33.50
38183;DHT22;23991;52.430;10.586;2022-09-12T16:33:26;29.90;33.70
38183;DHT22;23991;52.430;10.586;2022-09-12T16:35:52;29.90;34.00
38183;DHT22;23991;52.430;10.586;2022-09-12T16:38:25;29.70;34.10
38183;DHT22;23991;52.430;10.586;2022-09-12T16:40:50;29.70;34.00
38183;DHT22;23991;52.430;10.586;2022-09-12T16:43:16;29.50;34.20
38183;DHT22;23991;52.430;10.586;2022-09-12T16:45:45;29.40;34.30
38183;DHT22;23991;52.430;10.586;2022-09-12T16:48:11;29.20;34.50
38183;DHT22;23991;52.430;10.586;2022-09-12T16:50:36;29.00;35.10
38183;DHT22;23991;52.430;10.586;2022-09-12T16:53:02;29.00;35.60
38183;DHT22;23991;52.430;10.586;2022-09-12T16:55:27;28.90;35.60
38183;DHT22;23991;52.430;10.586;2022-09-12T16:57:54;28.70;36.10
38183;DHT22;23991;52.430;10.586;2022-09-12T17:00:20;28.20;37.80
38183;DHT22;23991;52.430;10.586;2022-09-12T17:02:45;28.20;38.70
38183;DHT22;23991;52.430;10.586;2022-09-12T17:05:12;28.20;38.90
38183;DHT22;23991;52.430;10.586;2022-09-12T17:07:40;28.20;39.00
38183;DHT22;23991;52.430;10.586;2022-09-12T17:10:06;27.80;40.00
38183;DHT22;23991;52.430;10.586;2022-09-12T17:12:33;27.80;40.10
38183;DHT22;23991;52.430;10.586;2022-09-12T17:14:58;27.60;41.20
38183;DHT22;23991;52.430;10.586;2022-09-12T17:17:24;27.50;41.60
38183;DHT22;23991;52.430;10.586;2022-09-12T17:19:50;27.30;41.90